Time;durP1;ratioP1;P1;durP2;ratioP2;P2;SDS_P1;SDS_P2;PMS_P1;PMS_P2;Temp;Humidity;BMP_temperature;BMP_pressure;BME280_temperature;BME280_humidity;BME280_pressure;Samples;Min_cycle;Max_cycle;Signal;HPM_P1;HPM_P2
2023/10/13 00:00:40;;;;;;;9.65;7.93;;;;;;;;;;5006797;28;20042;-67
2023/10/13 00:03:14;;;;;;;12.38;8.18;;;;;;;;;;4991869;28;20049;-65
2023/10/13 00:05:41;;;;;;;10.70;8.55;;;;;;;;;;4991816;28;20117;-66
2023/10/13 00:08:08;;;;;;;14.55;9.35;;;;;;;;;;4991688;28;20022;-66
2023/10/13 00:10:34;;;;;;;12.88;8.82;;;;;;;;;;5006873;28;20046;-66
2023/10/13 00:13:11;;;;;;;12.57;8.45;;;;;;;;;;4991739;28;20038;-65
2023/10/13 00:16:09;;;;;;;16.20;9.25;;;;;;;;;;4991665;28;20066;-66
2023/10/13 00:18:34;;;;;;;14.52;9.35;;;;;;;;;;4991299;28;20076;-65
2023/10/13 00:21:19;;;;;;;13.25;9.15;;;;;;;;;;4991553;28;20109;-65
2023/10/13 00:23:55;;;;;;;13.80;9.27;;;;;;;;;;4992615;28;20048;-65
2023/10/13 00:26:30;;;;;;;16.52;9.60;;;;;;;;;;4994907;28;20391;-65
2023/10/13 00:29:09;;;;;;;13.90;9.75;;;;;;;;;;5062640;28;20357;-65
2023/10/13 00:35:13;;;;;;;18.30;10.57;;;;;;;;;;4994587;28;20063;-66
2023/10/13 00:37:44;;;;;;;12.88;9.73;;;;;;;;;;5010003;28;20560;-66
2023/10/13 00:40:18;;;;;;;12.60;9.88;;;;;;;;;;4994716;28;20373;-66
2023/10/13 00:42:51;;;;;;;15.07;10.82;;;;;;;;;;5062616;28;20126;-66
2023/10/13 00:45:17;;;;;;;18.35;12.32;;;;;;;;;;4994738;28;20074;-65
2023/10/13 00:47:49;;;;;;;14.57;11.77;;;;;;;;;;5062385;28;20480;-64
2023/10/13 00:50:17;;;;;;;13.57;10.63;;;;;;;;;;4994712;28;20091;-61
2023/10/13 00:52:46;;;;;;;12.55;9.80;;;;;;;;;;4994916;28;20097;-61
2023/10/13 00:55:13;;;;;;;14.55;10.88;;;;;;;;;;4994692;28;20034;-61
2023/10/13 00:57:40;;;;;;;16.30;11.15;;;;;;;;;;5062234;28;20055;-64
2023/10/13 01:00:18;;;;;;;14.73;10.57;;;;;;;;;;4994193;28;20038;-62
2023/10/13 01:02:45;;;;;;;16.77;11.15;;;;;;;;;;4994584;28;20050;-62
2023/10/13 01:05:19;;;;;;;13.88;10.70;;;;;;;;;;4994390;28;20030;-63
2023/10/13 01:07:46;;;;;;;12.35;10.45;;;;;;;;;;4994292;28;20464;-62
2023/10/13 01:10:14;;;;;;;17.52;11.40;;;;;;;;;;5009157;28;20042;-64
2023/10/13 01:12:39;;;;;;;18.08;11.68;;;;;;;;;;5009661;28;20042;-64
2023/10/13 01:15:08;;;;;;;17.13;11.82;;;;;;;;;;4993037;28;20039;-63
2023/10/13 01:17:35;;;;;;;;;;;;;;;;;;4994947;28;20475;-64
2023/10/13 01:23:38;;;;;;;14.68;10.18;;;;;;;;;;4994320;28;20330;-63
2023/10/13 01:26:05;;;;;;;11.00;9.68;;;;;;;;;;5045064;28;20053;-64
2023/10/13 01:28:37;;;;;;;10.55;8.57;;;;;;;;;;5061709;28;20095;-64
2023/10/13 01:31:03;;;;;;;14.15;10.27;;;;;;;;;;5061704;28;20041;-63
2023/10/13 01:33:29;;;;;;;18.50;11.95;;;;;;;;;;4994149;28;20038;-64
2023/10/13 01:35:58;;;;;;;17.13;11.38;;;;;;;;;;5060110;28;20042;-64
2023/10/13 01:38:28;;;;;;;16.93;12.67;;;;;;;;;;4994099;28;20046;-64
2023/10/13 01:40:53;;;;;;;17.80;11.47;;;;;;;;;;5008893;28;20447;-62
2023/10/13 01:43:19;;;;;;;20.08;13.10;;;;;;;;;;5061238;28;20042;-66
2023/10/13 01:45:49;;;;;;;21.52;16.88;;;;;;;;;;5008786;28;20030;-68
2023/10/13 01:48:16;;;;;;;;;;;;;;;;;;4994048;28;20043;-67
2023/10/13 01:50:43;;;;;;;16.35;11.93;;;;;;;;;;5008942;28;19910;-66
2023/10/13 01:53:12;;;;;;;14.73;10.35;;;;;;;;;;5008802;28;20038;-66
2023/10/13 01:55:42;;;;;;;14.45;10.35;;;;;;;;;;4993525;28;20049;-64
2023/10/13 01:58:14;;;;;;;;;;;;;;;;;;5079238;28;20474;-66
2023/10/13 02:00:41;;;;;;;11.30;8.73;;;;;;;;;;5111851;28;19915;-65
2023/10/13 02:03:16;;;;;;;12.38;10.07;;;;;;;;;;5078254;28;20036;-66
2023/10/13 02:05:49;;;;;;;12.52;10.63;;;;;;;;;;5112376;28;20036;-67
2023/10/13 02:08:24;;;;;;;13.90;11.93;;;;;;;;;;5078116;28;20032;-66
2023/10/13 02:10:51;;;;;;;15.70;11.52;;;;;;;;;;5096264;28;20036;-67
2023/10/13 02:13:17;;;;;;;12.55;9.73;;;;;;;;;;5077975;28;20054;-69
2023/10/13 02:15:44;;;;;;;11.00;8.70;;;;;;;;;;5077806;28;20051;-69
2023/10/13 02:18:10;;;;;;;9.93;8.57;;;;;;;;;;5077851;28;20035;-69
2023/10/13 02:20:42;;;;;;;11.27;9.18;;;;;;;;;;5077746;28;20028;-69
2023/10/13 02:23:10;;;;;;;11.55;8.88;;;;;;;;;;5077264;28;20035;-69
2023/10/13 02:25:37;;;;;;;10.18;8.05;;;;;;;;;;5077600;28;20067;-69
2023/10/13 02:28:07;;;;;;;9.55;8.55;;;;;;;;;;5111310;28;20043;-69
2023/10/13 02:30:36;;;;;;;10.07;8.05;;;;;;;;;;5077444;28;20500;-69
2023/10/13 02:33:05;;;;;;;8.20;7.40;;;;;;;;;;5077540;28;20032;-68
2023/10/13 02:35:41;;;;;;;9.57;7.90;;;;;;;;;;5077350;28;20038;-68
2023/10/13 02:41:47;;;;;;;7.60;6.72;;;;;;;;;;5095418;28;20100;-70
2023/10/13 02:44:20;;;;;;;7.35;6.60;;;;;;;;;;5077490;28;20096;-69
2023/10/13 02:46:50;;;;;;;7.88;7.00;;;;;;;;;;5094833;28;20548;-71
2023/10/13 02:49:19;;;;;;;9.02;6.95;;;;;;;;;;5095243;28;20044;-69
2023/10/13 02:51:44;;;;;;;9.80;7.13;;;;;;;;;;5095448;28;20043;-68
2023/10/13 02:54:11;;;;;;;11.32;7.50;;;;;;;;;;5076887;28;20043;-68
2023/10/13 02:56:37;;;;;;;8.23;6.63;;;;;;;;;;5076729;28;20381;-68
2023/10/13 02:59:05;;;;;;;7.95;7.13;;;;;;;;;;5094609;28;20142;-67
2023/10/13 03:01:41;;;;;;;11.05;6.78;;;;;;;;;;5076716;28;20100;-66
2023/10/13 03:04:08;;;;;;;9.20;6.68;;;;;;;;;;5094589;28;20035;-66
2023/10/13 03:06:34;;;;;;;9.25;6.75;;;;;;;;;;5095224;28;20110;-66
2023/10/13 03:09:17;;;;;;;7.88;7.07;;;;;;;;;;5060249;28;20080;-66
2023/10/13 03:11:48;;;;;;;8.40;6.57;;;;;;;;;;5076799;28;20119;-63
2023/10/13 03:14:31;;;;;;;10.10;7.28;;;;;;;;;;5076792;28;20060;-63
2023/10/13 03:17:06;;;;;;;9.13;7.53;;;;;;;;;;5094959;28;20165;-63
2023/10/13 03:19:36;;;;;;;9.70;7.05;;;;;;;;;;5110685;28;20104;-64
2023/10/13 03:24:33;;;;;;;7.93;6.85;;;;;;;;;;5094566;28;20054;-65
2023/10/13 03:27:08;;;;;;;9.32;7.20;;;;;;;;;;5076485;28;20024;-65
2023/10/13 03:29:34;;;;;;;10.90;7.22;;;;;;;;;;5076190;28;20043;-65
2023/10/13 03:32:06;;;;;;;9.63;6.75;;;;;;;;;;5076625;28;20044;-65
2023/10/13 03:34:32;;;;;;;9.93;6.43;;;;;;;;;;5094515;28;20050;-65
2023/10/13 03:36:58;;;;;;;8.48;6.43;;;;;;;;;;5076062;28;20116;-65
2023/10/13 03:39:30;;;;;;;10.05;6.68;;;;;;;;;;5094714;28;20039;-64
2023/10/13 03:41:59;;;;;;;10.70;6.80;;;;;;;;;;5094247;28;20038;-63
2023/10/13 03:44:30;;;;;;;8.90;6.20;;;;;;;;;;5094378;28;20141;-63
2023/10/13 03:46:55;;;;;;;;;;;;;;;;;;5094750;28;20040;-63
2023/10/13 03:49:21;;;;;;;9.57;6.32;;;;;;;;;;5110050;28;19931;-64
2023/10/13 03:51:50;;;;;;;8.15;6.05;;;;;;;;;;5076110;28;20043;-63
2023/10/13 03:54:16;;;;;;;10.93;6.45;;;;;;;;;;5093697;28;20135;-63
2023/10/13 03:56:44;;;;;;;7.90;6.10;;;;;;;;;;5093947;28;20359;-64
2023/10/13 03:59:10;;;;;;;6.25;5.63;;;;;;;;;;5093416;28;20146;-66
2023/10/13 04:04:34;;;;;;;8.23;5.78;;;;;;;;;;5076089;28;20063;-65
2023/10/13 04:17:22;;;;;;;8.65;5.82;;;;;;;;;;5093871;28;20055;-66
2023/10/13 04:36:36;;;;;;;6.43;5.65;;;;;;;;;;5093900;28;20101;-67
2023/10/13 04:57:33;;;;;;;10.20;5.97;;;;;;;;;;5074831;28;20035;-74
2023/10/13 05:46:35;;;;;;;10.63;7.50;;;;;;;;;;5095578;28;20032;-64
2023/10/13 06:29:33;;;;;;;14.25;8.65;;;;;;;;;;5094354;28;20036;-60
2023/10/13 06:32:01;;;;;;;11.27;8.55;;;;;;;;;;5094186;28;20127;-60
2023/10/13 06:34:37;;;;;;;12.95;8.38;;;;;;;;;;5089815;28;20452;-60
2023/10/13 06:37:22;;;;;;;12.48;8.18;;;;;;;;;;5074541;28;20370;-60
2023/10/13 06:39:48;;;;;;;11.18;8.00;;;;;;;;;;5073467;28;20033;-70
2023/10/13 06:42:14;;;;;;;13.27;7.97;;;;;;;;;;5073758;28;20041;-69
2023/10/13 06:44:45;;;;;;;10.73;6.55;;;;;;;;;;5074519;28;20547;-69
2023/10/13 06:47:11;;;;;;;13.10;6.60;;;;;;;;;;5074582;28;20501;-69
2023/10/13 06:49:38;;;;;;;12.75;6.80;;;;;;;;;;5056701;28;20044;-69
2023/10/13 06:52:06;;;;;;;16.77;6.55;;;;;;;;;;5074122;28;20041;-69
2023/10/13 06:54:33;;;;;;;8.25;5.90;;;;;;;;;;5072519;28;20047;-69
2023/10/13 06:56:59;;;;;;;8.75;5.88;;;;;;;;;;5072460;28;20119;-69
2023/10/13 06:59:26;;;;;;;11.27;5.05;;;;;;;;;;5072486;28;20193;-69
2023/10/13 07:01:52;;;;;;;8.13;4.97;;;;;;;;;;5037958;28;20036;-69
2023/10/13 07:04:18;;;;;;;6.32;4.90;;;;;;;;;;5072987;28;20044;-69
2023/10/13 07:06:50;;;;;;;7.22;4.25;;;;;;;;;;5073294;28;20046;-68
2023/10/13 07:12:03;;;;;;;8.95;4.78;;;;;;;;;;5074212;28;20055;-69
2023/10/13 07:14:33;;;;;;;9.20;4.68;;;;;;;;;;5074200;28;20497;-68
2023/10/13 07:17:02;;;;;;;9.38;5.28;;;;;;;;;;5074276;28;20064;-68
2023/10/13 07:19:28;;;;;;;7.43;5.47;;;;;;;;;;5074106;28;20043;-68
2023/10/13 07:21:58;;;;;;;8.32;5.50;;;;;;;;;;5074003;28;20461;-68
2023/10/13 07:24:24;;;;;;;;;;;;;;;;;;5074516;28;20555;-68
2023/10/13 07:26:57;;;;;;;6.43;4.85;;;;;;;;;;5073946;28;19944;-68
2023/10/13 07:29:24;;;;;;;13.23;6.22;;;;;;;;;;5056014;28;20036;-68
2023/10/13 07:31:50;;;;;;;9.25;5.65;;;;;;;;;;5055935;28;20055;-68
2023/10/13 07:34:26;;;;;;;12.15;6.70;;;;;;;;;;5073774;28;20530;-68
2023/10/13 07:37:00;;;;;;;9.23;6.22;;;;;;;;;;5055821;28;20135;-69
2023/10/13 07:39:39;;;;;;;9.90;6.05;;;;;;;;;;5073857;28;20040;-69
2023/10/13 07:42:05;;;;;;;8.73;5.25;;;;;;;;;;5073836;28;20060;-68
2023/10/13 07:44:34;;;;;;;7.28;5.63;;;;;;;;;;5073620;28;20123;-68
2023/10/13 07:47:02;;;;;;;10.73;5.55;;;;;;;;;;5073779;28;20048;-68
2023/10/13 07:49:30;;;;;;;8.60;5.93;;;;;;;;;;5073750;28;20041;-69
2023/10/13 07:52:58;;;;;;;10.45;6.35;;;;;;;;;;5073676;28;20032;-69
2023/10/13 07:55:11;;;;;;;6.35;5.15;;;;;;;;;;5062738;28;20044;-68
2023/10/13 07:57:52;;;;;;;5.93;4.80;;;;;;;;;;5055729;28;20044;-68
2023/10/13 08:03:09;;;;;;;7.57;5.70;;;;;;;;;;5073487;28;20036;-68
2023/10/13 08:08:18;;;;;;;7.70;5.28;;;;;;;;;;5073402;28;20517;-68
2023/10/13 08:10:45;;;;;;;7.68;5.28;;;;;;;;;;5073447;28;20037;-68
2023/10/13 08:13:12;;;;;;;7.60;5.00;;;;;;;;;;5073470;28;20040;-68
2023/10/13 08:15:47;;;;;;;4.75;3.80;;;;;;;;;;5073435;28;20062;-68
2023/10/13 08:18:19;;;;;;;7.93;4.82;;;;;;;;;;5073431;28;20052;-68
2023/10/13 08:20:45;;;;;;;9.38;5.07;;;;;;;;;;5055387;28;20061;-68
2023/10/13 08:23:13;;;;;;;10.80;5.43;;;;;;;;;;5073304;28;20071;-68
2023/10/13 08:31:25;;;;;;;7.25;5.05;;;;;;;;;;5001839;28;20104;-68
2023/10/13 08:33:57;;;;;;;8.02;5.32;;;;;;;;;;5073182;28;20398;-68
2023/10/13 08:36:29;;;;;;;10.85;5.90;;;;;;;;;;5073074;28;20037;-68
2023/10/13 08:38:55;;;;;;;7.22;4.72;;;;;;;;;;5073158;28;20389;-68
2023/10/13 08:43:53;;;;;;;7.75;4.82;;;;;;;;;;5072989;28;20040;-68
2023/10/13 08:46:26;;;;;;;9.73;5.43;;;;;;;;;;5076926;28;20059;-68
2023/10/13 08:48:52;;;;;;;8.35;5.47;;;;;;;;;;5076926;28;20044;-68
2023/10/13 08:51:31;;;;;;;8.95;5.43;;;;;;;;;;5077018;28;20036;-68
2023/10/13 08:54:07;;;;;;;6.32;5.60;;;;;;;;;;5076866;28;20123;-68
2023/10/13 08:56:34;;;;;;;7.78;5.43;;;;;;;;;;5058974;28;20102;-68
2023/10/13 08:59:05;;;;;;;8.73;5.45;;;;;;;;;;5076697;28;20040;-68
2023/10/13 09:04:27;;;;;;;6.65;5.35;;;;;;;;;;5076679;28;20040;-68
2023/10/13 09:09:27;;;;;;;8.88;5.03;;;;;;;;;;5076577;28;20042;-68
2023/10/13 09:12:10;;;;;;;8.35;5.22;;;;;;;;;;5076548;28;20036;-68
2023/10/13 09:14:58;;;;;;;7.40;4.15;;;;;;;;;;5076295;28;20048;-68
2023/10/13 09:19:58;;;;;;;9.13;5.30;;;;;;;;;;5076471;28;20372;-68
2023/10/13 09:22:27;;;;;;;8.95;5.75;;;;;;;;;;5076274;28;20042;-68
2023/10/13 09:24:59;;;;;;;7.18;5.53;;;;;;;;;;5076419;28;20431;-68
2023/10/13 09:27:26;;;;;;;10.10;5.47;;;;;;;;;;5076337;28;20043;-68
2023/10/13 09:29:55;;;;;;;9.88;5.22;;;;;;;;;;5076260;28;20117;-68
2023/10/13 09:32:21;;;;;;;7.40;6.10;;;;;;;;;;5076397;28;20040;-68
2023/10/13 09:34:48;;;;;;;4.95;4.55;;;;;;;;;;5075988;28;20044;-68
2023/10/13 09:37:20;;;;;;;5.00;4.32;;;;;;;;;;5076022;28;20039;-68
2023/10/13 09:39:48;;;;;;;3.72;3.38;;;;;;;;;;5076064;28;20032;-69
2023/10/13 09:42:16;;;;;;;6.43;4.47;;;;;;;;;;5076559;28;20037;-68
2023/10/13 09:44:45;;;;;;;5.95;3.97;;;;;;;;;;5084640;28;20048;-68
2023/10/13 09:47:17;;;;;;;7.85;5.10;;;;;;;;;;5066230;28;20146;-68
2023/10/13 09:49:47;;;;;;;9.30;4.50;;;;;;;;;;5083793;28;20182;-69
2023/10/13 09:52:19;;;;;;;7.63;4.00;;;;;;;;;;5090474;28;20478;-69
2023/10/13 09:54:59;;;;;;;6.05;3.50;;;;;;;;;;5082360;28;20136;-68
2023/10/13 09:57:28;;;;;;;4.18;3.53;;;;;;;;;;5056876;28;20029;-68
2023/10/13 10:00:06;;;;;;;8.05;4.20;;;;;;;;;;5075740;28;20064;-68
2023/10/13 10:02:43;;;;;;;4.63;4.18;;;;;;;;;;5075284;28;20556;-69
2023/10/13 10:05:13;;;;;;;5.40;3.35;;;;;;;;;;5057160;28;20106;-68
2023/10/13 10:07:43;;;;;;;5.70;3.30;;;;;;;;;;5056999;28;20562;-68
2023/10/13 10:10:09;;;;;;;6.50;3.58;;;;;;;;;;5075204;28;20105;-68
2023/10/13 10:12:47;;;;;;;5.85;2.88;;;;;;;;;;5075165;28;20468;-69
2023/10/13 10:15:30;;;;;;;2.78;2.58;;;;;;;;;;5074746;28;20364;-59
2023/10/13 10:17:56;;;;;;;4.18;3.53;;;;;;;;;;5075060;28;20047;-59
2023/10/13 10:20:44;;;;;;;3.55;2.97;;;;;;;;;;5057038;28;20390;-59
2023/10/13 10:23:21;;;;;;;4.75;3.35;;;;;;;;;;5074892;28;20034;-59
2023/10/13 10:25:47;;;;;;;4.22;2.97;;;;;;;;;;5074945;28;20048;-59
2023/10/13 10:28:15;;;;;;;5.88;3.13;;;;;;;;;;5074976;28;20040;-60
2023/10/13 10:30:42;;;;;;;4.50;3.08;;;;;;;;;;5074817;28;20047;-60
2023/10/13 10:33:12;;;;;;;3.13;2.85;;;;;;;;;;5040139;28;20127;-59
2023/10/13 10:35:39;;;;;;;4.90;3.58;;;;;;;;;;5074696;28;20099;-59
2023/10/13 10:40:56;;;;;;;6.57;3.08;;;;;;;;;;5073948;28;20153;-60
2023/10/13 10:43:25;;;;;;;3.63;3.15;;;;;;;;;;5051775;28;20108;-60
2023/10/13 10:45:51;;;;;;;6.43;3.13;;;;;;;;;;5054413;28;20047;-59
2023/10/13 10:48:17;;;;;;;4.82;3.08;;;;;;;;;;5054484;28;20104;-60
2023/10/13 10:50:55;;;;;;;3.60;2.22;;;;;;;;;;5054284;28;20098;-60
2023/10/13 10:53:22;;;;;;;3.85;2.42;;;;;;;;;;5054170;28;20471;-59
2023/10/13 11:17:58;;;;;;;5.18;3.35;;;;;;;;;;5040878;22;20060;-76
2023/10/13 11:20:33;;;;;;;5.80;3.63;;;;;;;;;;5010717;28;20033;-76
2023/10/13 11:23:00;;;;;;;4.30;3.25;;;;;;;;;;5029450;28;20059;-73
2023/10/13 11:25:29;;;;;;;4.55;3.08;;;;;;;;;;4994701;28;20091;-76
2023/10/13 11:27:56;;;;;;;5.20;3.93;;;;;;;;;;5011536;28;20049;-72
2023/10/13 11:30:25;;;;;;;5.65;3.58;;;;;;;;;;5028832;28;20272;-72
2023/10/13 11:32:57;;;;;;;4.80;3.40;;;;;;;;;;5028671;28;20156;-73
2023/10/13 11:35:23;;;;;;;4.63;3.20;;;;;;;;;;5029316;28;20060;-72
2023/10/13 11:37:56;;;;;;;5.03;3.17;;;;;;;;;;5028952;28;20479;-72
2023/10/13 11:40:43;;;;;;;6.00;3.33;;;;;;;;;;5011694;28;20288;-74
2023/10/13 11:43:14;;;;;;;3.40;2.35;;;;;;;;;;5011377;28;20133;-72
2023/10/13 11:45:55;;;;;;;6.93;2.95;;;;;;;;;;5029107;28;20113;-72
2023/10/13 11:48:36;;;;;;;4.07;2.85;;;;;;;;;;5029585;28;20174;-72
2023/10/13 11:51:09;;;;;;;3.63;2.28;;;;;;;;;;5028771;28;20095;-73
2023/10/13 11:53:37;;;;;;;3.08;2.78;;;;;;;;;;5011272;28;20063;-73
2023/10/13 11:56:10;;;;;;;2.85;2.35;;;;;;;;;;5029173;28;20042;-82
2023/10/13 11:58:36;;;;;;;2.70;2.08;;;;;;;;;;5011344;28;20038;-79
2023/10/13 12:11:51;;;;;;;2.67;2.15;;;;;;;;;;5012848;28;20117;-79
2023/10/13 12:14:36;;;;;;;4.47;3.20;;;;;;;;;;5000878;28;20048;-78
2023/10/13 12:17:10;;;;;;;9.38;3.30;;;;;;;;;;5033580;28;20037;-78
2023/10/13 12:19:36;;;;;;;4.68;2.55;;;;;;;;;;5025863;28;20121;-78
2023/10/13 12:22:04;;;;;;;3.90;2.50;;;;;;;;;;5033010;28;20553;-74
2023/10/13 12:27:14;;;;;;;4.03;3.03;;;;;;;;;;5032895;28;20063;-74
2023/10/13 12:29:46;;;;;;;6.30;2.75;;;;;;;;;;5032322;28;20030;-73
2023/10/13 12:32:14;;;;;;;5.75;2.40;;;;;;;;;;5026603;28;20478;-77
2023/10/13 12:34:57;;;;;;;4.63;2.53;;;;;;;;;;5026283;28;20045;-73
2023/10/13 12:53:54;;;;;;;3.10;1.98;;;;;;;;;;5015020;28;20383;-73
2023/10/13 12:56:26;;;;;;;5.43;2.90;;;;;;;;;;5014689;28;20475;-73
2023/10/13 12:58:54;;;;;;;4.88;3.15;;;;;;;;;;5031138;28;20033;-73
2023/10/13 13:01:24;;;;;;;4.70;3.20;;;;;;;;;;4998056;28;20037;-70
2023/10/13 13:03:50;;;;;;;5.60;3.03;;;;;;;;;;5031178;28;20116;-71
2023/10/13 13:06:24;;;;;;;3.42;2.92;;;;;;;;;;5032182;28;20129;-70
2023/10/13 13:08:51;;;;;;;3.67;2.83;;;;;;;;;;5014328;28;20037;-69
2023/10/13 13:11:18;;;;;;;5.13;3.15;;;;;;;;;;5014841;28;20399;-71
2023/10/13 13:13:46;;;;;;;4.43;2.78;;;;;;;;;;5031633;28;20045;-70
2023/10/13 13:16:12;;;;;;;4.18;2.58;;;;;;;;;;5030928;28;20059;-69
2023/10/13 13:18:37;;;;;;;2.83;2.30;;;;;;;;;;5000596;28;20121;-71
2023/10/13 13:21:06;;;;;;;2.10;2.00;;;;;;;;;;5031072;28;20169;-69
2023/10/13 13:23:39;;;;;;;6.38;1.77;;;;;;;;;;5004861;28;20053;-70
2023/10/13 13:26:15;;;;;;;2.17;1.98;;;;;;;;;;5018566;28;20107;-70
2023/10/13 13:28:42;;;;;;;5.25;2.35;;;;;;;;;;5000379;28;20041;-69
2023/10/13 13:31:08;;;;;;;6.00;3.03;;;;;;;;;;5011590;28;20042;-71
2023/10/13 13:33:38;;;;;;;5.00;2.58;;;;;;;;;;5012479;28;20425;-71
2023/10/13 13:36:07;;;;;;;6.17;2.60;;;;;;;;;;5030499;28;20085;-70
2023/10/13 13:38:33;;;;;;;5.88;2.80;;;;;;;;;;5023270;28;20034;-71
2023/10/13 13:41:01;;;;;;;4.05;3.00;;;;;;;;;;5008115;28;20034;-71
2023/10/13 13:46:24;;;;;;;3.55;2.58;;;;;;;;;;5018850;28;20074;-71
2023/10/13 13:49:07;;;;;;;3.63;2.60;;;;;;;;;;5011803;28;20030;-75
2023/10/13 13:51:38;;;;;;;5.68;2.80;;;;;;;;;;5012514;28;20121;-75
2023/10/13 13:54:06;;;;;;;4.63;2.45;;;;;;;;;;5012422;28;20041;-75
2023/10/13 13:56:38;;;;;;;3.05;2.50;;;;;;;;;;5010736;28;20038;-75
2023/10/13 13:59:07;;;;;;;4.30;2.35;;;;;;;;;;5010567;28;20030;-75
2023/10/13 14:01:34;;;;;;;2.05;1.92;;;;;;;;;;5012064;28;20112;-70
2023/10/13 14:04:06;;;;;;;3.13;2.42;;;;;;;;;;5011710;28;20034;-70
2023/10/13 14:06:32;;;;;;;2.75;2.20;;;;;;;;;;5010077;28;20117;-71
2023/10/13 14:09:15;;;;;;;4.57;2.67;;;;;;;;;;5011316;28;20042;-70
2023/10/13 14:14:13;;;;;;;2.55;2.17;;;;;;;;;;5011236;28;20087;-71
2023/10/13 14:16:46;;;;;;;5.78;2.88;;;;;;;;;;5009708;28;20045;-71
2023/10/13 14:19:12;;;;;;;3.03;2.55;;;;;;;;;;5010123;28;20384;-71
2023/10/13 14:21:38;;;;;;;3.72;2.40;;;;;;;;;;5011675;28;20038;-70
2023/10/13 14:24:14;;;;;;;4.00;1.92;;;;;;;;;;5010565;28;20053;-71
2023/10/13 14:26:42;;;;;;;3.03;2.22;;;;;;;;;;5011633;28;20036;-70
2023/10/13 14:29:14;;;;;;;3.05;2.35;;;;;;;;;;5013017;28;20021;-71
2023/10/13 14:31:39;;;;;;;2.90;2.05;;;;;;;;;;4993662;28;20048;-70
2023/10/13 14:34:06;;;;;;;2.60;2.08;;;;;;;;;;5012898;28;20402;-71
2023/10/13 14:36:34;;;;;;;5.00;2.50;;;;;;;;;;5012419;28;20037;-71
2023/10/13 14:39:00;;;;;;;2.47;2.08;;;;;;;;;;5030705;28;20048;-71
2023/10/13 14:41:26;;;;;;;2.75;1.90;;;;;;;;;;5031310;28;20042;-75
2023/10/13 14:43:51;;;;;;;2.60;1.90;;;;;;;;;;5043703;28;20036;-75
2023/10/13 14:46:17;;;;;;;2.38;2.05;;;;;;;;;;5004558;28;20041;-75
2023/10/13 14:48:43;;;;;;;3.58;2.40;;;;;;;;;;5009840;28;20046;-75
2023/10/13 14:51:09;;;;;;;4.40;2.33;;;;;;;;;;4993645;28;20087;-75
2023/10/13 14:53:35;;;;;;;2.92;2.40;;;;;;;;;;5010808;28;20046;-75
2023/10/13 14:56:01;;;;;;;3.10;1.95;;;;;;;;;;5009760;28;20038;-75
2023/10/13 14:58:27;;;;;;;3.10;2.30;;;;;;;;;;5009300;28;20038;-75
2023/10/13 15:00:54;;;;;;;3.85;2.60;;;;;;;;;;5011201;28;20042;-74
2023/10/13 15:03:21;;;;;;;4.45;3.00;;;;;;;;;;5009294;28;20060;-74
2023/10/13 15:05:47;;;;;;;4.45;2.75;;;;;;;;;;5010970;28;20042;-74
2023/10/13 15:08:12;;;;;;;3.72;2.67;;;;;;;;;;5009779;28;20083;-75
2023/10/13 15:10:39;;;;;;;7.57;3.38;;;;;;;;;;5009637;28;20094;-75
2023/10/13 15:13:05;;;;;;;3.47;2.47;;;;;;;;;;5010690;28;20033;-75
2023/10/13 15:15:32;;;;;;;3.40;2.30;;;;;;;;;;5010845;28;20045;-74
2023/10/13 15:17:58;;;;;;;4.90;2.15;;;;;;;;;;5010183;28;20038;-73
2023/10/13 15:20:23;;;;;;;2.50;2.08;;;;;;;;;;5010978;28;20058;-75
2023/10/13 15:22:49;;;;;;;4.70;2.60;;;;;;;;;;5012804;28;20065;-75
2023/10/13 15:25:20;;;;;;;3.17;2.53;;;;;;;;;;5031106;28;20030;-69
2023/10/13 15:28:02;;;;;;;2.90;2.47;;;;;;;;;;5029820;28;20048;-70
2023/10/13 15:30:42;;;;;;;2.83;2.25;;;;;;;;;;5012860;28;20124;-69
2023/10/13 15:33:08;;;;;;;2.60;2.40;;;;;;;;;;5010550;28;20091;-70
2023/10/13 15:35:33;;;;;;;4.13;2.67;;;;;;;;;;5010669;28;20485;-70
2023/10/13 15:38:00;;;;;;;3.75;2.25;;;;;;;;;;5008391;28;20698;-68
2023/10/13 15:40:27;;;;;;;3.15;2.25;;;;;;;;;;5010782;28;20117;-67
2023/10/13 15:42:59;;;;;;;4.35;2.58;;;;;;;;;;5008698;28;20042;-67
2023/10/13 15:45:32;;;;;;;3.17;2.67;;;;;;;;;;5010783;28;20042;-67
2023/10/13 15:47:58;;;;;;;2.65;2.45;;;;;;;;;;5018597;28;20482;-68
2023/10/13 15:50:24;;;;;;;4.32;3.67;;;;;;;;;;5029994;28;20145;-67
2023/10/13 15:52:50;;;;;;;2.78;2.50;;;;;;;;;;5030020;28;20041;-70
2023/10/13 15:55:17;;;;;;;4.35;2.58;;;;;;;;;;4994746;28;20065;-69
2023/10/13 15:57:43;;;;;;;2.55;2.17;;;;;;;;;;5015780;28;20109;-69
2023/10/13 16:00:29;;;;;;;2.42;1.95;;;;;;;;;;5029015;28;20453;-67
2023/10/13 16:02:56;;;;;;;2.53;2.33;;;;;;;;;;5029793;28;20109;-69
2023/10/13 16:05:23;;;;;;;4.45;2.53;;;;;;;;;;5008712;28;20038;-68
2023/10/13 16:07:54;;;;;;;5.45;2.45;;;;;;;;;;5010544;28;20052;-65
2023/10/13 16:10:23;;;;;;;3.05;2.80;;;;;;;;;;5008599;28;20041;-68
2023/10/13 16:12:49;;;;;;;5.70;3.60;;;;;;;;;;5008615;28;20042;-67
2023/10/13 16:15:16;;;;;;;8.02;4.43;;;;;;;;;;5013483;28;20068;-68
2023/10/13 16:17:41;;;;;;;4.68;4.00;;;;;;;;;;5010602;28;20030;-68
2023/10/13 16:20:15;;;;;;;4.78;4.20;;;;;;;;;;5011258;28;20110;-70
2023/10/13 16:22:44;;;;;;;6.78;4.40;;;;;;;;;;5012449;28;20091;-71
2023/10/13 16:25:11;;;;;;;17.23;6.10;;;;;;;;;;5026170;28;20052;-71
2023/10/13 16:27:39;;;;;;;8.48;5.05;;;;;;;;;;5009450;28;20042;-71
2023/10/13 16:30:09;;;;;;;6.22;4.85;;;;;;;;;;5009560;28;20046;-71
2023/10/13 16:32:36;;;;;;;9.82;5.38;;;;;;;;;;5010080;28;20034;-71
2023/10/13 16:35:10;;;;;;;11.00;6.35;;;;;;;;;;5008758;28;20057;-72
2023/10/13 16:37:36;;;;;;;13.82;8.18;;;;;;;;;;5008384;28;20034;-71
2023/10/13 16:40:05;;;;;;;9.32;6.70;;;;;;;;;;5009520;28;20117;-72
2023/10/13 16:42:34;;;;;;;8.13;5.65;;;;;;;;;;5008262;28;20069;-72
2023/10/13 16:45:20;;;;;;;7.95;5.35;;;;;;;;;;5008431;28;20056;-70
2023/10/13 16:47:55;;;;;;;10.25;5.97;;;;;;;;;;5009074;28;20054;-71
2023/10/13 16:50:26;;;;;;;9.05;5.72;;;;;;;;;;5007957;28;20046;-71
2023/10/13 16:53:04;;;;;;;26.13;13.00;;;;;;;;;;5009045;28;20038;-71
2023/10/13 16:55:32;;;;;;;26.80;13.05;;;;;;;;;;5008957;28;20050;-72
2023/10/13 16:57:57;;;;;;;27.02;13.95;;;;;;;;;;5008880;28;20034;-71
2023/10/13 17:00:26;;;;;;;31.65;14.88;;;;;;;;;;4991887;28;20064;-71
2023/10/13 17:02:52;;;;;;;35.33;17.48;;;;;;;;;;5009927;28;20122;-70
2023/10/13 17:05:22;;;;;;;35.13;15.80;;;;;;;;;;5008470;28;20038;-75
2023/10/13 17:07:51;;;;;;;30.70;13.88;;;;;;;;;;5012175;28;20034;-75
2023/10/13 17:10:19;;;;;;;24.85;13.10;;;;;;;;;;5012307;28;20045;-75
2023/10/13 17:12:46;;;;;;;29.85;13.73;;;;;;;;;;5012694;28;20375;-74
2023/10/13 17:15:21;;;;;;;20.45;11.45;;;;;;;;;;4994875;28;20054;-74
2023/10/13 17:17:50;;;;;;;16.02;10.18;;;;;;;;;;5011983;28;20034;-75
2023/10/13 17:20:19;;;;;;;18.05;10.00;;;;;;;;;;5016780;28;20042;-75
2023/10/13 17:22:47;;;;;;;19.73;11.55;;;;;;;;;;5023148;28;20389;-75
2023/10/13 17:25:17;;;;;;;12.52;8.27;;;;;;;;;;5012644;28;20044;-75
2023/10/13 17:27:45;;;;;;;12.52;7.55;;;;;;;;;;5012536;28;20041;-74
2023/10/13 17:30:12;;;;;;;15.88;9.68;;;;;;;;;;5012924;28;20057;-75
2023/10/13 17:32:39;;;;;;;18.80;11.55;;;;;;;;;;5012530;28;20109;-75
2023/10/13 17:35:13;;;;;;;19.08;9.43;;;;;;;;;;5012347;28;20070;-75
2023/10/13 17:37:45;;;;;;;13.38;8.40;;;;;;;;;;5012632;28;20033;-75
2023/10/13 17:40:18;;;;;;;24.02;12.25;;;;;;;;;;5010770;28;20042;-70
2023/10/13 17:42:52;;;;;;;16.80;10.10;;;;;;;;;;5015259;28;20029;-70
2023/10/13 17:45:24;;;;;;;25.77;14.15;;;;;;;;;;5031800;28;20063;-71
2023/10/13 17:47:51;;;;;;;16.90;11.32;;;;;;;;;;5031579;28;20058;-71
2023/10/13 17:50:39;;;;;;;27.40;16.95;;;;;;;;;;4997569;28;20052;-69
2023/10/13 17:53:05;;;;;;;20.02;12.30;;;;;;;;;;5012094;28;20095;-76
2023/10/13 17:55:32;;;;;;;18.58;11.48;;;;;;;;;;5011777;28;20038;-75
2023/10/13 17:57:58;;;;;;;19.98;13.25;;;;;;;;;;5010877;28;20030;-75
2023/10/13 18:00:24;;;;;;;27.90;18.05;;;;;;;;;;5011582;28;20049;-74
2023/10/13 18:02:54;;;;;;;19.38;12.18;;;;;;;;;;5027227;28;20029;-71
2023/10/13 18:05:20;;;;;;;18.67;11.38;;;;;;;;;;5031638;28;20364;-71
2023/10/13 18:07:47;;;;;;;16.73;11.13;;;;;;;;;;5031829;28;20127;-70
2023/10/13 18:10:14;;;;;;;21.58;13.77;;;;;;;;;;5031459;28;20040;-71
2023/10/13 18:12:42;;;;;;;16.67;10.88;;;;;;;;;;5018082;28;20116;-71
2023/10/13 18:15:39;;;;;;;25.05;15.50;;;;;;;;;;5011499;28;20046;-71
2023/10/13 18:18:38;;;;;;;26.65;17.83;;;;;;;;;;5010586;28;20091;-71
2023/10/13 18:21:07;;;;;;;15.27;10.27;;;;;;;;;;5009874;28;20046;-71
2023/10/13 18:23:39;;;;;;;14.15;9.52;;;;;;;;;;5011448;28;20038;-71
2023/10/13 18:26:12;;;;;;;18.58;10.30;;;;;;;;;;5011244;28;20033;-71
2023/10/13 18:28:51;;;;;;;19.75;11.02;;;;;;;;;;5011470;28;20491;-71
2023/10/13 18:31:17;;;;;;;27.00;13.82;;;;;;;;;;5009736;28;20117;-71
2023/10/13 18:33:43;;;;;;;18.58;12.38;;;;;;;;;;5012583;28;20037;-71
2023/10/13 18:36:13;;;;;;;17.30;11.23;;;;;;;;;;5012839;28;20049;-71
2023/10/13 18:38:38;;;;;;;17.17;10.75;;;;;;;;;;5012771;28;20034;-71
2023/10/13 18:41:04;;;;;;;14.93;9.30;;;;;;;;;;5012483;28;20402;-70
2023/10/13 18:43:30;;;;;;;12.30;8.27;;;;;;;;;;5030116;28;20442;-71
2023/10/13 18:46:06;;;;;;;12.95;7.82;;;;;;;;;;5012836;28;20399;-71
2023/10/13 18:48:40;;;;;;;14.45;8.32;;;;;;;;;;5013815;28;20049;-71